createdAt,value
2018-02-05T00:00:39.919Z,34.4
2018-02-05T00:01:40.684Z,34.8
2018-02-05T00:02:41.474Z,33.7
2018-02-05T00:03:42.228Z,34.5
2018-02-05T00:04:42.935Z,34.2
2018-02-05T00:05:43.645Z,32.0
2018-02-05T00:06:44.436Z,33.6
2018-02-05T00:07:45.148Z,32.2
2018-02-05T00:08:45.881Z,34.7
2018-02-05T00:09:46.606Z,35.2
2018-02-05T00:10:47.369Z,58.5
2018-02-05T00:11:48.197Z,35.9
2018-02-05T00:12:48.937Z,35.1
2018-02-05T00:13:49.711Z,34.6
2018-02-05T00:14:50.495Z,33.8
2018-02-05T00:15:51.258Z,34.2
2018-02-05T00:16:51.975Z,34.7
2018-02-05T00:17:52.708Z,34.1
2018-02-05T00:18:53.437Z,34.8
2018-02-05T00:19:54.237Z,33.5
2018-02-05T00:20:55.257Z,35.5
2018-02-05T00:21:55.989Z,35.0
2018-02-05T00:22:56.694Z,33.0
2018-02-05T00:23:57.426Z,34.0
2018-02-05T00:24:58.178Z,33.4
2018-02-05T00:25:59.188Z,34.1
2018-02-05T00:26:59.935Z,33.3
2018-02-05T00:28:00.707Z,32.9
2018-02-05T00:29:01.499Z,34.1
2018-02-05T00:30:02.314Z,33.7
2018-02-05T00:31:03.045Z,33.8
2018-02-05T00:32:03.773Z,32.6
2018-02-05T00:33:04.486Z,32.0
2018-02-05T00:34:05.230Z,33.4
2018-02-05T00:35:05.987Z,32.0
2018-02-05T00:36:06.722Z,33.0
2018-02-05T00:37:07.453Z,32.8
2018-02-05T00:38:08.531Z,33.3
2018-02-05T00:39:09.248Z,31.1
2018-02-05T00:40:10.039Z,33.6
2018-02-05T00:41:10.806Z,32.0
2018-02-05T00:42:11.569Z,32.4
2018-02-05T00:43:12.285Z,32.2
2018-02-05T00:44:13.016Z,31.8
2018-02-05T00:45:13.737Z,30.8
2018-02-05T00:46:14.455Z,32.9
2018-02-05T00:47:15.178Z,39.0
2018-02-05T00:48:15.894Z,35.7
2018-02-05T00:49:16.622Z,32.4
2018-02-05T00:50:17.391Z,30.2
2018-02-05T00:51:18.119Z,31.5
2018-02-05T00:52:18.845Z,33.9
2018-02-05T00:53:19.585Z,31.4
2018-02-05T00:54:20.374Z,33.7
2018-02-05T00:55:21.109Z,33.0
2018-02-05T00:56:21.905Z,32.9
2018-02-05T00:57:22.625Z,31.5
2018-02-05T00:58:23.423Z,36.7
2018-02-05T00:59:24.155Z,34.2
2018-02-05T01:00:24.876Z,34.2
2018-02-05T01:01:25.671Z,32.9
2018-02-05T01:02:26.752Z,33.6
2018-02-05T01:03:27.459Z,32.7
2018-02-05T01:04:28.205Z,32.3
2018-02-05T01:05:29.003Z,32.0
2018-02-05T01:06:29.768Z,31.0
2018-02-05T01:07:30.579Z,30.7
2018-02-05T01:08:31.327Z,31.0
2018-02-05T01:09:32.104Z,32.0
2018-02-05T01:10:32.855Z,31.4
2018-02-05T01:11:33.598Z,32.1
2018-02-05T01:12:34.670Z,29.9
2018-02-05T01:13:35.460Z,31.4
2018-02-05T01:14:36.187Z,31.2
2018-02-05T01:15:36.909Z,31.8
2018-02-05T01:16:37.637Z,31.2
2018-02-05T01:17:38.352Z,30.3
2018-02-05T01:18:39.072Z,32.1
2018-02-05T01:19:39.741Z,31.6
2018-02-05T01:20:40.526Z,29.8
2018-02-05T01:21:41.267Z,31.0
2018-02-05T01:22:41.990Z,30.8
2018-02-05T01:23:42.719Z,30.7
2018-02-05T01:24:43.804Z,29.5
2018-02-05T01:25:44.537Z,30.9
2018-02-05T01:26:45.246Z,29.5
2018-02-05T01:27:45.957Z,29.1
2018-02-05T01:28:46.731Z,31.0
2018-02-05T01:29:47.756Z,29.9
2018-02-05T01:30:48.476Z,29.5
2018-02-05T01:31:49.248Z,30.7
2018-02-05T01:32:49.955Z,30.1
2018-02-05T01:33:50.679Z,29.3
2018-02-05T01:34:51.444Z,30.3
2018-02-05T01:35:52.167Z,30.1
2018-02-05T01:36:52.881Z,29.0
2018-02-05T01:37:53.610Z,29.7
2018-02-05T01:38:54.325Z,29.6
2018-02-05T01:39:55.361Z,30.0
2018-02-05T01:40:56.152Z,29.5
2018-02-05T01:41:56.938Z,29.8
2018-02-05T01:42:57.659Z,27.7
2018-02-05T01:43:58.381Z,30.8
2018-02-05T01:44:59.125Z,30.5
2018-02-05T01:45:59.932Z,29.0
2018-02-05T01:47:00.651Z,29.0
2018-02-05T01:48:01.370Z,31.4
2018-02-05T01:49:02.087Z,30.8
2018-02-05T01:50:02.818Z,28.9
2018-02-05T01:51:03.638Z,29.2
2018-02-05T01:52:04.739Z,29.7
2018-02-05T01:53:05.538Z,29.5
2018-02-05T01:54:06.257Z,28.3
2018-02-05T01:55:06.984Z,27.5
2018-02-05T01:56:07.699Z,30.1
2018-02-05T01:57:08.767Z,28.4
2018-02-05T01:58:09.498Z,29.9
2018-02-05T01:59:10.229Z,29.9
2018-02-05T02:00:11.016Z,29.6
2018-02-05T02:01:11.750Z,29.4
2018-02-05T02:02:12.492Z,29.5
2018-02-05T02:03:13.287Z,29.6
2018-02-05T02:04:14.021Z,28.8
2018-02-05T02:05:14.790Z,29.0
2018-02-05T02:06:15.498Z,28.7
2018-02-05T02:07:16.226Z,28.0
2018-02-05T02:08:16.956Z,29.9
2018-02-05T02:09:17.679Z,30.0
2018-02-05T02:10:18.452Z,29.6
2018-02-05T02:11:19.167Z,28.6
2018-02-05T02:12:19.887Z,30.8
2018-02-05T02:13:20.667Z,28.9
2018-02-05T02:14:21.384Z,28.9
2018-02-05T02:15:22.113Z,29.2
2018-02-05T02:16:22.908Z,28.9
2018-02-05T02:17:23.625Z,29.1
2018-02-05T02:18:24.348Z,30.1
2018-02-05T02:19:25.133Z,28.8
2018-02-05T02:20:25.904Z,30.3
2018-02-05T02:21:26.630Z,30.1
2018-02-05T02:22:27.359Z,31.5
2018-02-05T02:23:28.127Z,32.0
2018-02-05T02:24:28.941Z,32.3
2018-02-05T02:25:29.699Z,30.1
2018-02-05T02:26:30.484Z,31.1
2018-02-05T02:27:31.208Z,32.1
2018-02-05T02:28:31.983Z,32.4
2018-02-05T02:29:32.707Z,31.8
2018-02-05T02:30:33.430Z,32.7
2018-02-05T02:31:34.194Z,32.1
2018-02-05T02:32:34.924Z,33.9
2018-02-05T02:33:35.751Z,31.7
2018-02-05T02:34:36.554Z,33.1
2018-02-05T02:35:37.277Z,34.1
2018-02-05T02:36:38.008Z,34.7
2018-02-05T02:37:38.744Z,34.3
2018-02-05T02:38:39.456Z,33.2
2018-02-05T02:39:40.523Z,33.4
2018-02-05T02:40:41.235Z,33.3
2018-02-05T02:41:42.017Z,33.6
2018-02-05T02:42:42.746Z,36.1
2018-02-05T02:43:43.498Z,34.4
2018-02-05T02:44:44.585Z,34.6
2018-02-05T02:45:45.316Z,34.8
2018-02-05T02:46:46.034Z,32.7
2018-02-05T02:47:46.765Z,34.5
2018-02-05T02:48:47.489Z,36.0
2018-02-05T02:49:48.515Z,33.9
2018-02-05T02:50:49.237Z,35.1
2018-02-05T02:51:49.995Z,36.0
2018-02-05T02:52:50.775Z,35.0
2018-02-05T02:53:51.508Z,34.6
2018-02-05T02:54:52.293Z,35.8
2018-02-05T02:55:53.015Z,37.3
2018-02-05T02:56:53.758Z,37.2
2018-02-05T02:57:54.558Z,37.5
2018-02-05T02:58:55.263Z,35.9
2018-02-05T02:59:56.006Z,37.2
2018-02-05T03:00:56.746Z,36.2
2018-02-05T03:01:57.470Z,35.2
2018-02-05T03:02:58.186Z,35.9
2018-02-05T03:03:58.906Z,37.6
2018-02-05T03:04:59.679Z,35.9
2018-02-05T03:06:00.468Z,36.7
2018-02-05T03:07:01.177Z,35.5
2018-02-05T03:08:01.966Z,38.1
2018-02-05T03:09:02.694Z,36.4
2018-02-05T03:10:03.475Z,38.7
2018-02-05T03:11:04.207Z,38.5
2018-02-05T03:12:04.936Z,36.4
2018-02-05T03:13:05.653Z,36.6
2018-02-05T03:14:06.376Z,37.6
2018-02-05T03:15:07.405Z,35.0
2018-02-05T03:16:08.206Z,36.1
2018-02-05T03:17:08.877Z,34.8
2018-02-05T03:18:09.594Z,35.1
2018-02-05T03:19:10.316Z,35.0
2018-02-05T03:20:11.110Z,36.0
2018-02-05T03:21:11.891Z,35.8
2018-02-05T03:22:12.606Z,35.9
2018-02-05T03:23:13.316Z,35.8
2018-02-05T03:24:14.105Z,36.1
2018-02-05T03:25:14.843Z,34.4
2018-02-05T03:26:15.556Z,34.4
2018-02-05T03:27:16.381Z,34.5
2018-02-05T03:28:17.197Z,35.2
2018-02-05T03:29:17.934Z,34.1
2018-02-05T03:30:18.975Z,34.2
2018-02-05T03:31:19.696Z,34.2
2018-02-05T03:32:20.437Z,33.4
2018-02-05T03:33:21.214Z,34.1
2018-02-05T03:34:21.936Z,33.5
2018-02-05T03:35:22.675Z,34.0
2018-02-05T03:36:23.708Z,33.7
2018-02-05T03:37:24.424Z,32.9
2018-02-05T03:38:25.154Z,35.2
2018-02-05T03:39:25.905Z,32.2
2018-02-05T03:40:26.679Z,33.4
2018-02-05T03:41:27.396Z,33.7
2018-02-05T03:42:28.175Z,33.5
2018-02-05T03:43:28.908Z,32.3
2018-02-05T03:44:29.631Z,33.5
2018-02-05T03:45:30.355Z,33.1
2018-02-05T03:46:31.073Z,32.3
2018-02-05T03:47:32.157Z,33.5
2018-02-05T03:48:32.936Z,35.1
2018-02-05T03:49:33.656Z,33.0
2018-02-05T03:50:34.387Z,32.5
2018-02-05T03:51:35.166Z,32.5
2018-02-05T03:52:36.004Z,31.5
2018-02-05T03:53:36.725Z,32.6
2018-02-05T03:54:37.446Z,32.4
2018-02-05T03:55:38.164Z,31.4
2018-02-05T03:56:38.889Z,32.7
2018-02-05T03:57:39.917Z,33.7
2018-02-05T03:58:40.637Z,32.1
2018-02-05T03:59:41.356Z,32.1
2018-02-05T04:00:42.087Z,31.5
2018-02-05T04:01:42.811Z,31.2
2018-02-05T04:02:43.845Z,32.1
2018-02-05T04:03:44.578Z,33.5
2018-02-05T04:04:45.276Z,31.5
2018-02-05T04:05:45.996Z,32.3
2018-02-05T04:06:46.708Z,32.2
2018-02-05T04:07:47.496Z,33.3
2018-02-05T04:08:48.282Z,33.8
2018-02-05T04:09:49.074Z,32.3
2018-02-05T04:10:49.802Z,32.1
2018-02-05T04:11:50.532Z,31.9
2018-02-05T04:12:51.254Z,34.3
2018-02-05T04:13:51.976Z,35.0
2018-02-05T04:14:52.694Z,33.5
2018-02-05T04:15:53.417Z,35.2
2018-02-05T04:16:54.434Z,33.4
2018-02-05T04:17:55.152Z,34.6
2018-02-05T04:18:55.863Z,32.8
2018-02-05T04:19:56.574Z,33.4
2018-02-05T04:20:57.299Z,33.3
2018-02-05T04:21:58.013Z,33.4
2018-02-05T04:22:58.811Z,33.5
2018-02-05T04:23:59.524Z,33.3
2018-02-05T04:25:00.256Z,33.5
2018-02-05T04:26:01.323Z,33.5
2018-02-05T04:27:02.062Z,34.1
2018-02-05T04:28:02.762Z,33.1
2018-02-05T04:29:03.489Z,32.1
2018-02-05T04:30:04.205Z,31.8
2018-02-05T04:31:04.916Z,33.4
2018-02-05T04:32:05.649Z,33.0
2018-02-05T04:33:06.463Z,32.2
2018-02-05T04:34:07.206Z,31.5
2018-02-05T04:35:08.003Z,32.1
2018-02-05T04:36:08.728Z,31.0
2018-02-05T04:37:09.553Z,32.4
2018-02-05T04:38:10.285Z,32.0
2018-02-05T04:39:11.064Z,33.4
2018-02-05T04:40:11.816Z,30.9
2018-02-05T04:41:12.546Z,32.4
2018-02-05T04:42:13.325Z,33.1
2018-02-05T04:43:14.047Z,33.4
2018-02-05T04:44:14.777Z,32.1
2018-02-05T04:45:15.505Z,30.2
2018-02-05T04:46:16.228Z,31.8
2018-02-05T04:47:16.980Z,31.4
2018-02-05T04:48:18.003Z,32.3
2018-02-05T04:49:18.725Z,34.0
2018-02-05T04:50:19.445Z,33.6
2018-02-05T04:51:20.161Z,33.2
2018-02-05T04:52:20.895Z,33.5
2018-02-05T04:53:21.657Z,33.8
2018-02-05T04:54:22.368Z,35.2
2018-02-05T04:55:23.155Z,34.8
2018-02-05T04:56:23.885Z,34.0
2018-02-05T04:57:24.611Z,35.0
2018-02-05T04:58:25.667Z,33.9
2018-02-05T04:59:26.382Z,35.4
2018-02-05T05:00:27.103Z,33.8
2018-02-05T05:01:27.838Z,34.9
2018-02-05T05:02:28.624Z,34.8
2018-02-05T05:03:29.656Z,36.1
2018-02-05T05:04:30.377Z,34.0
2018-02-05T05:05:31.183Z,35.2
2018-02-05T05:06:31.929Z,35.1
2018-02-05T05:07:32.647Z,35.3
2018-02-05T05:08:33.495Z,35.9
2018-02-05T05:09:34.221Z,33.8
2018-02-05T05:10:34.996Z,34.8
2018-02-05T05:11:35.721Z,34.4
2018-02-05T05:12:36.448Z,32.3
2018-02-05T05:13:37.169Z,35.7
2018-02-05T05:14:37.899Z,33.2
2018-02-05T05:15:38.668Z,34.1
2018-02-05T05:16:39.455Z,35.2
2018-02-05T05:17:40.243Z,34.2
2018-02-05T05:18:40.975Z,34.3
2018-02-05T05:19:41.696Z,36.1
2018-02-05T05:20:42.716Z,35.5
2018-02-05T05:21:43.496Z,36.4
2018-02-05T05:22:44.226Z,36.6
2018-02-05T05:23:44.955Z,35.1
2018-02-05T05:24:45.734Z,36.0
2018-02-05T05:25:46.469Z,35.9
2018-02-05T05:26:47.263Z,36.2
2018-02-05T05:27:48.343Z,36.3
2018-02-05T05:28:49.085Z,37.6
2018-02-05T05:29:49.796Z,35.3
2018-02-05T05:30:50.545Z,36.1
2018-02-05T05:31:51.341Z,33.5
2018-02-05T05:32:52.435Z,36.7
2018-02-05T05:33:53.188Z,35.6
2018-02-05T05:34:53.986Z,36.3
2018-02-05T05:35:54.699Z,35.7
2018-02-05T05:36:55.475Z,36.0
2018-02-05T05:37:56.245Z,34.6
2018-02-05T05:38:57.036Z,33.5
2018-02-05T05:39:57.772Z,36.6
2018-02-05T05:40:58.533Z,36.1
2018-02-05T05:41:59.253Z,36.2
2018-02-05T05:43:00.028Z,33.4
2018-02-05T05:44:00.746Z,36.5
2018-02-05T05:45:01.467Z,36.1
2018-02-05T05:46:02.164Z,34.6
2018-02-05T05:47:02.884Z,37.6
2018-02-05T05:48:03.625Z,35.8
2018-02-05T05:49:04.358Z,35.7
2018-02-05T05:50:05.100Z,36.6
2018-02-05T05:51:05.814Z,37.7
2018-02-05T05:52:06.526Z,37.1
2018-02-05T05:53:07.255Z,36.8
2018-02-05T05:54:07.964Z,38.2
2018-02-05T05:55:08.922Z,38.7
2018-02-05T05:56:09.596Z,36.2
2018-02-05T05:57:10.330Z,38.7
2018-02-05T05:58:11.055Z,40.2
2018-02-05T05:59:11.799Z,39.8
2018-02-05T06:00:12.585Z,38.3
2018-02-05T06:01:13.302Z,38.1
2018-02-05T06:02:14.028Z,39.9
2018-02-05T06:03:14.737Z,39.3
2018-02-05T06:04:15.466Z,41.7
2018-02-05T06:05:16.197Z,40.9
2018-02-05T06:06:16.995Z,39.6
2018-02-05T06:07:18.004Z,40.5
2018-02-05T06:08:18.730Z,39.6
2018-02-05T06:09:19.522Z,40.0
2018-02-05T06:10:20.256Z,42.8
2018-02-05T06:11:20.982Z,39.8
2018-02-05T06:12:21.745Z,41.4
2018-02-05T06:13:22.475Z,40.5
2018-02-05T06:14:23.202Z,40.5
2018-02-05T06:15:23.920Z,39.2
2018-02-05T06:16:24.637Z,41.0
2018-02-05T06:17:25.345Z,41.5
2018-02-05T06:18:26.083Z,40.0
2018-02-05T06:19:26.824Z,42.4
2018-02-05T06:20:27.575Z,43.2
2018-02-05T06:21:28.291Z,40.6
2018-02-05T06:22:29.013Z,40.4
2018-02-05T06:23:30.034Z,41.4
2018-02-05T06:24:30.757Z,42.5
2018-02-05T06:25:31.540Z,42.4
2018-02-05T06:26:32.221Z,42.5
2018-02-05T06:27:33.038Z,41.0
2018-02-05T06:28:33.737Z,43.2
2018-02-05T06:29:34.821Z,41.9
2018-02-05T06:30:35.521Z,42.7
2018-02-05T06:31:36.244Z,43.2
2018-02-05T06:32:36.964Z,42.9
2018-02-05T06:33:37.689Z,42.7
2018-02-05T06:34:38.416Z,42.7
2018-02-05T06:35:39.136Z,42.6
2018-02-05T06:36:39.863Z,43.0
2018-02-05T06:37:40.578Z,42.4
2018-02-05T06:38:41.294Z,42.3
2018-02-05T06:39:42.014Z,42.2
2018-02-05T06:40:42.777Z,41.4
2018-02-05T06:41:43.520Z,41.6
2018-02-05T06:42:44.298Z,42.2
2018-02-05T06:43:45.035Z,40.6
2018-02-05T06:44:45.817Z,41.4
2018-02-05T06:45:46.531Z,42.0
2018-02-05T06:46:47.253Z,41.7
2018-02-05T06:47:47.973Z,39.0
2018-02-05T06:48:48.706Z,39.9
2018-02-05T06:49:49.783Z,39.7
2018-02-05T06:50:50.523Z,41.1
2018-02-05T06:51:51.248Z,38.3
2018-02-05T06:52:51.963Z,38.0
2018-02-05T06:53:52.738Z,36.1
2018-02-05T06:54:53.461Z,37.9
2018-02-05T06:55:54.233Z,38.9
2018-02-05T06:56:55.244Z,36.3
2018-02-05T06:57:55.967Z,37.1
2018-02-05T06:58:56.731Z,35.1
2018-02-05T06:59:57.450Z,35.7
2018-02-05T07:00:58.173Z,34.9
2018-02-05T07:01:58.898Z,35.0
2018-02-05T07:02:59.671Z,33.9
2018-02-05T07:04:00.388Z,35.1
2018-02-05T07:05:01.178Z,32.0
2018-02-05T07:06:01.946Z,32.4
2018-02-05T07:07:02.645Z,32.3
2018-02-05T07:08:03.367Z,32.2
2018-02-05T07:09:04.090Z,32.9
2018-02-05T07:10:04.854Z,32.5
2018-02-05T07:11:05.567Z,31.3
2018-02-05T07:12:06.301Z,32.6
2018-02-05T07:13:07.036Z,31.2
2018-02-05T07:14:07.803Z,30.2
2018-02-05T07:15:08.554Z,29.5
2018-02-05T07:16:09.269Z,30.6
2018-02-05T07:17:09.996Z,28.6
2018-02-05T07:18:10.722Z,29.4
2018-02-05T07:19:11.513Z,29.9
2018-02-05T07:20:12.236Z,29.5
2018-02-05T07:21:13.031Z,28.4
2018-02-05T07:22:13.860Z,29.0
2018-02-05T07:23:14.709Z,29.0
2018-02-05T07:24:15.430Z,29.0
2018-02-05T07:25:16.170Z,29.5
2018-02-05T07:26:16.890Z,29.2
2018-02-05T07:27:17.677Z,28.4
2018-02-05T07:28:18.394Z,28.6
2018-02-05T07:29:19.428Z,28.9
2018-02-05T07:30:20.230Z,30.4
2018-02-05T07:31:20.963Z,29.9
2018-02-05T07:32:21.685Z,27.8
2018-02-05T07:33:22.408Z,27.7
2018-02-05T07:34:23.184Z,27.7
2018-02-05T07:35:23.906Z,26.6
2018-02-05T07:36:24.638Z,27.2
2018-02-05T07:37:25.380Z,26.3
2018-02-05T07:38:26.176Z,26.5
2018-02-05T07:39:27.244Z,28.0
2018-02-05T07:40:27.978Z,28.2
2018-02-05T07:41:28.704Z,27.3
2018-02-05T07:42:29.446Z,27.0
2018-02-05T07:43:30.165Z,27.7
2018-02-05T07:44:31.008Z,28.2
2018-02-05T07:45:32.586Z,27.4
2018-02-05T07:46:33.678Z,27.8
2018-02-05T07:47:34.397Z,26.4
2018-02-05T07:48:35.131Z,27.9
2018-02-05T07:49:36.217Z,26.0
2018-02-05T07:50:36.952Z,26.8
2018-02-05T07:51:37.706Z,27.4
2018-02-05T07:52:38.435Z,27.1
2018-02-05T07:53:39.166Z,26.4
2018-02-05T07:54:39.884Z,28.0
2018-02-05T07:55:40.627Z,26.1
2018-02-05T07:56:41.413Z,25.9
2018-02-05T07:57:42.163Z,25.6
2018-02-05T07:58:42.928Z,28.1
2018-02-05T07:59:43.648Z,27.1
2018-02-05T08:00:44.366Z,27.6
2018-02-05T08:01:45.445Z,25.7
2018-02-05T08:02:46.232Z,27.0
2018-02-05T08:03:47.015Z,26.9
2018-02-05T08:04:47.745Z,26.6
2018-02-05T08:05:48.474Z,24.2
2018-02-05T08:06:49.207Z,25.9
2018-02-05T08:07:49.933Z,24.5
2018-02-05T08:08:50.665Z,26.0
2018-02-05T08:09:51.462Z,25.2
2018-02-05T08:10:52.187Z,25.8
2018-02-05T08:11:52.914Z,25.2
2018-02-05T08:12:53.650Z,26.2
2018-02-05T08:13:54.435Z,24.9
2018-02-05T08:14:55.167Z,24.9
2018-02-05T08:15:55.955Z,25.4
2018-02-05T08:16:56.679Z,26.0
2018-02-05T08:17:57.424Z,25.7
2018-02-05T08:18:58.136Z,25.2
2018-02-05T08:19:58.995Z,23.3
2018-02-05T08:20:59.776Z,25.5
2018-02-05T08:22:00.507Z,25.3
2018-02-05T08:23:01.292Z,24.5
2018-02-05T08:24:02.105Z,24.5
2018-02-05T08:25:03.197Z,24.4
2018-02-05T08:26:03.936Z,25.2
2018-02-05T08:27:04.666Z,24.3
2018-02-05T08:28:05.384Z,25.2
2018-02-05T08:29:06.103Z,23.5
2018-02-05T08:30:07.122Z,24.1
2018-02-05T08:31:07.854Z,25.0
2018-02-05T08:32:08.565Z,24.0
2018-02-05T08:33:09.285Z,23.4
2018-02-05T08:34:10.023Z,24.2
2018-02-05T08:35:10.804Z,23.4
2018-02-05T08:36:11.537Z,22.2
2018-02-05T08:37:12.350Z,24.4
2018-02-05T08:38:13.124Z,23.5
2018-02-05T08:39:13.844Z,22.5
2018-02-05T08:40:14.627Z,22.3
2018-02-05T08:41:15.345Z,22.2
2018-02-05T08:42:16.073Z,23.4
2018-02-05T08:43:16.845Z,22.1
2018-02-05T08:44:17.643Z,22.6
2018-02-05T08:45:18.443Z,22.2
2018-02-05T08:46:19.173Z,23.7
2018-02-05T08:47:19.906Z,22.4
2018-02-05T08:48:20.633Z,22.5
2018-02-05T08:49:21.388Z,21.5
2018-02-05T08:50:22.085Z,23.0
2018-02-05T08:51:22.885Z,23.0
2018-02-05T08:52:23.619Z,23.5
2018-02-05T08:53:25.218Z,23.6
2018-02-05T08:54:26.961Z,23.9
2018-02-05T08:55:27.983Z,22.6
2018-02-05T08:56:28.695Z,24.6
2018-02-05T08:57:30.954Z,24.9
2018-02-05T08:58:32.052Z,24.3
2018-02-05T08:59:33.770Z,23.7
2018-02-05T09:00:34.706Z,23.1
2018-02-05T09:01:35.831Z,23.2
2018-02-05T09:02:36.818Z,23.5
2018-02-05T09:03:38.635Z,24.0
2018-02-05T09:04:39.682Z,23.8
2018-02-05T09:05:40.403Z,22.0
2018-02-05T09:06:41.128Z,21.6
2018-02-05T09:07:41.844Z,24.2
2018-02-05T09:08:42.572Z,23.4
2018-02-05T09:09:43.691Z,23.2
2018-02-05T09:10:44.487Z,23.5
2018-02-05T09:11:45.282Z,22.4
2018-02-05T09:12:46.018Z,21.8
2018-02-05T09:13:46.754Z,23.5
2018-02-05T09:14:47.526Z,24.3
2018-02-05T09:15:48.250Z,22.4
2018-02-05T09:16:48.982Z,21.7
2018-02-05T09:17:49.696Z,23.2
2018-02-05T09:18:50.422Z,22.8
2018-02-05T09:19:51.234Z,23.4
2018-02-05T09:20:51.964Z,22.1
2018-02-05T09:21:52.689Z,22.2
2018-02-05T09:22:53.427Z,21.3
2018-02-05T09:23:54.163Z,22.8
2018-02-05T09:24:55.244Z,22.8
2018-02-05T09:25:55.976Z,21.9
2018-02-05T09:26:56.683Z,22.5
2018-02-05T09:27:57.411Z,23.4
2018-02-05T09:28:58.205Z,24.1
2018-02-05T09:29:58.929Z,22.5
2018-02-05T09:30:59.718Z,24.5
2018-02-05T09:32:00.407Z,23.6
2018-02-05T09:33:01.206Z,23.7
2018-02-05T09:34:01.924Z,23.2
2018-02-05T09:35:02.649Z,22.6
2018-02-05T09:36:03.433Z,19.5
2018-02-05T09:37:04.453Z,20.1
2018-02-05T09:38:05.183Z,19.2
2018-02-05T09:39:05.916Z,21.4
2018-02-05T09:40:06.700Z,20.1
2018-02-05T09:41:07.429Z,20.3
2018-02-05T09:42:08.167Z,20.9
2018-02-05T09:43:08.966Z,20.3
2018-02-05T09:44:09.684Z,20.5
2018-02-05T09:45:10.416Z,20.1
2018-02-05T09:46:11.438Z,19.6
2018-02-05T09:47:12.155Z,21.1
2018-02-05T09:48:12.884Z,21.3
2018-02-05T09:49:13.604Z,20.0
2018-02-05T09:50:14.332Z,20.7
2018-02-05T09:51:15.743Z,20.0
2018-02-05T09:52:16.474Z,20.7
2018-02-05T09:53:17.205Z,21.2
2018-02-05T09:54:17.991Z,20.9
2018-02-05T09:55:18.721Z,21.1
2018-02-05T09:56:19.437Z,20.8
2018-02-05T09:57:20.171Z,20.4
2018-02-05T09:58:20.946Z,20.6
2018-02-05T09:59:21.678Z,21.0
2018-02-05T10:00:22.498Z,21.6
2018-02-05T10:02:37.555Z,21.3
2018-02-05T10:03:38.288Z,21.1
2018-02-05T10:04:38.952Z,21.3
2018-02-05T10:05:39.686Z,20.7
2018-02-05T10:06:40.411Z,21.0
2018-02-05T10:07:41.152Z,21.1
2018-02-05T10:08:41.924Z,21.0
2018-02-05T10:09:42.653Z,19.5
2018-02-05T10:10:43.377Z,19.4
2018-02-05T10:11:44.108Z,17.8
2018-02-05T10:12:44.824Z,19.0
2018-02-05T10:13:45.614Z,19.3
2018-02-05T10:14:46.348Z,18.5
2018-02-05T10:15:47.173Z,17.9
2018-02-05T10:16:47.907Z,20.2
2018-02-05T10:17:48.637Z,17.7
2018-02-05T10:18:49.666Z,18.8
2018-02-05T10:19:50.444Z,19.0
2018-02-05T10:20:51.177Z,20.0
2018-02-05T10:21:51.906Z,19.7
2018-02-05T10:22:52.663Z,19.4
2018-02-05T10:23:53.764Z,18.7
2018-02-05T10:24:54.483Z,18.6
2018-02-05T10:25:55.199Z,18.3
2018-02-05T10:26:56.028Z,18.1
2018-02-05T10:27:56.763Z,18.1
2018-02-05T10:28:57.840Z,19.5
2018-02-05T10:29:58.568Z,16.9
2018-02-05T10:30:59.362Z,17.9
2018-02-05T10:32:00.121Z,17.9
2018-02-05T10:33:00.826Z,16.5
2018-02-05T10:34:01.855Z,17.7
2018-02-05T10:35:02.666Z,17.6
2018-02-05T10:36:03.446Z,18.6
2018-02-05T10:37:04.175Z,18.0
2018-02-05T10:38:04.976Z,17.6
2018-02-05T10:39:05.755Z,17.0
2018-02-05T10:40:06.486Z,17.7
2018-02-05T10:41:07.216Z,18.5
2018-02-05T10:42:07.938Z,17.1
2018-02-05T10:43:08.672Z,16.8
2018-02-05T10:44:09.453Z,16.3
2018-02-05T10:45:10.230Z,17.5
2018-02-05T10:46:10.956Z,17.1
2018-02-05T10:47:11.673Z,17.3
2018-02-05T10:48:12.397Z,17.4
2018-02-05T10:49:13.126Z,16.6
2018-02-05T10:50:13.859Z,17.7
2018-02-05T10:51:14.593Z,19.4
2018-02-05T10:52:15.349Z,17.3
2018-02-05T10:53:16.069Z,18.6
2018-02-05T10:54:16.807Z,19.3
2018-02-05T10:55:17.837Z,18.4
2018-02-05T10:56:18.573Z,17.4
2018-02-05T10:57:19.308Z,18.1
2018-02-05T10:58:20.045Z,17.9
2018-02-05T10:59:20.836Z,17.4
2018-02-05T11:00:21.856Z,16.4
2018-02-05T11:01:22.582Z,16.2
2018-02-05T11:02:23.373Z,17.1
2018-02-05T11:03:24.106Z,16.7
2018-02-05T11:04:24.837Z,17.3
2018-02-05T11:05:25.638Z,16.5
2018-02-05T11:06:26.456Z,17.8
2018-02-05T11:07:27.237Z,17.5
2018-02-05T11:08:27.966Z,18.6
2018-02-05T11:09:28.694Z,18.2
2018-02-05T11:10:29.419Z,17.6
2018-02-05T11:11:30.204Z,17.9
2018-02-05T11:12:30.990Z,17.3
2018-02-05T11:13:31.725Z,18.3
2018-02-05T11:14:32.488Z,17.4
2018-02-05T11:15:33.186Z,18.4
2018-02-05T11:16:33.916Z,19.0
2018-02-05T11:17:34.934Z,19.1
2018-02-05T11:18:35.659Z,19.2
2018-02-05T11:19:36.434Z,17.9
2018-02-05T11:20:37.158Z,18.7
2018-02-05T11:21:37.892Z,18.7
2018-02-05T11:22:38.662Z,17.4
2018-02-05T11:23:39.406Z,17.8
2018-02-05T11:24:40.189Z,17.8
2018-02-05T11:25:41.213Z,17.3
2018-02-05T11:26:41.946Z,17.9
2018-02-05T11:27:42.665Z,17.8
2018-02-05T11:28:43.474Z,18.7
2018-02-05T11:29:44.276Z,17.8
2018-02-05T11:30:45.064Z,17.9
2018-02-05T11:31:45.838Z,17.8
2018-02-05T11:32:46.626Z,18.8
2018-02-05T11:33:47.358Z,18.6
2018-02-05T11:34:48.167Z,18.7
2018-02-05T11:35:48.935Z,17.6
2018-02-05T11:36:49.716Z,18.3
2018-02-05T11:37:50.450Z,18.0
2018-02-05T11:38:51.178Z,17.2
2018-02-05T11:39:52.278Z,18.0
2018-02-05T11:40:53.070Z,17.2
2018-02-05T11:41:53.843Z,17.1
2018-02-05T11:42:54.578Z,17.0
2018-02-05T11:43:55.335Z,17.8
2018-02-05T11:44:56.073Z,17.3
2018-02-05T11:45:56.812Z,16.9
2018-02-05T11:46:57.627Z,16.5
2018-02-05T11:47:58.346Z,17.6
2018-02-05T11:48:59.070Z,16.6
2018-02-05T11:49:59.869Z,16.7
2018-02-05T11:51:00.632Z,16.8
2018-02-05T11:52:01.417Z,16.6
2018-02-05T11:53:02.175Z,15.6
2018-02-05T11:54:02.948Z,15.7
2018-02-05T11:55:03.727Z,16.5
2018-02-05T11:56:04.475Z,16.3
2018-02-05T11:57:05.185Z,16.4
2018-02-05T11:58:05.977Z,16.9
2018-02-05T11:59:06.700Z,15.0
2018-02-05T12:00:07.442Z,14.8
2018-02-05T12:01:08.211Z,15.2
2018-02-05T12:02:08.929Z,16.0
2018-02-05T12:03:09.651Z,15.3
2018-02-05T12:04:12.837Z,14.4
2018-02-05T12:05:13.753Z,16.0
2018-02-05T12:06:14.484Z,15.8
2018-02-05T12:07:15.237Z,15.6
2018-02-05T12:08:16.315Z,16.2
2018-02-05T12:09:17.106Z,16.0
2018-02-05T12:10:17.887Z,15.9
2018-02-05T12:11:18.576Z,15.7
2018-02-05T12:12:19.414Z,15.8
2018-02-05T12:13:20.209Z,15.9
2018-02-05T12:14:20.938Z,15.5
2018-02-05T12:15:21.666Z,15.5
2018-02-05T12:16:22.656Z,15.0
2018-02-05T12:17:23.333Z,15.1
2018-02-05T12:18:25.131Z,16.1
2018-02-05T12:19:26.927Z,16.2
2018-02-05T12:20:28.751Z,15.8
2018-02-05T12:21:29.764Z,16.0
2018-02-05T12:22:30.576Z,16.7
2018-02-05T12:23:31.442Z,16.1
2018-02-05T12:24:32.233Z,16.8
2018-02-05T12:25:32.961Z,17.1
2018-02-05T12:26:33.765Z,16.1
2018-02-05T12:27:34.557Z,17.2
2018-02-05T12:28:35.613Z,16.6
2018-02-05T12:29:36.349Z,16.6
2018-02-05T12:30:37.145Z,16.3
2018-02-05T12:31:37.927Z,16.9
2018-02-05T12:32:38.646Z,16.7
2018-02-05T12:33:39.445Z,17.4
2018-02-05T12:34:40.475Z,17.0
2018-02-05T12:35:41.205Z,16.3
2018-02-05T12:36:41.956Z,17.5
2018-02-05T12:37:42.680Z,16.9
2018-02-05T12:38:43.418Z,17.6
2018-02-05T12:39:44.235Z,17.3
2018-02-05T12:40:44.976Z,17.3
2018-02-05T12:41:45.711Z,17.5
2018-02-05T12:42:46.484Z,16.8
2018-02-05T12:43:47.217Z,17.1
2018-02-05T12:44:47.942Z,16.4
2018-02-05T12:45:48.667Z,16.6
2018-02-05T12:46:49.800Z,15.0
2018-02-05T12:47:50.460Z,16.0
2018-02-05T12:48:51.264Z,16.5
2018-02-05T12:49:52.047Z,14.9
2018-02-05T12:50:52.897Z,17.3
2018-02-05T12:51:53.686Z,17.6
2018-02-05T12:52:54.479Z,15.9
2018-02-05T12:53:55.205Z,16.2
2018-02-05T12:54:55.987Z,15.9
2018-02-05T12:55:57.101Z,16.0
2018-02-05T12:56:57.897Z,16.2
2018-02-05T12:57:58.627Z,16.3
2018-02-05T12:58:59.357Z,14.8
2018-02-05T13:00:00.097Z,15.7
2018-02-05T13:01:01.387Z,15.8
2018-02-05T13:02:02.055Z,16.0
2018-02-05T13:03:03.965Z,15.1
2018-02-05T13:04:04.911Z,15.7
2018-02-05T13:05:06.205Z,15.2
2018-02-05T13:06:07.295Z,15.1
2018-02-05T13:07:08.113Z,15.6
2018-02-05T13:08:09.575Z,15.9
2018-02-05T13:09:10.247Z,15.2
2018-02-05T13:10:10.990Z,15.6
2018-02-05T13:11:11.786Z,15.2
2018-02-05T13:12:12.542Z,15.5
2018-02-05T13:13:13.311Z,16.2
2018-02-05T13:14:14.398Z,14.7
2018-02-05T13:15:15.083Z,15.4
2018-02-05T13:16:15.880Z,14.6
2018-02-05T13:17:16.829Z,15.9
2018-02-05T13:18:17.505Z,16.3
2018-02-05T13:19:18.298Z,15.3
2018-02-05T13:20:19.102Z,15.2
2018-02-05T13:21:19.811Z,15.8
2018-02-05T13:22:20.595Z,15.5
2018-02-05T13:23:21.382Z,14.8
2018-02-05T13:24:22.196Z,14.2
2018-02-05T13:25:23.908Z,15.1
2018-02-05T13:26:24.943Z,14.8
2018-02-05T13:27:25.653Z,15.2
2018-02-05T13:28:26.478Z,14.6
2018-02-05T13:29:27.165Z,14.4
2018-02-05T13:30:27.937Z,14.9